sensor_id;sensor_type;location;lat;lon;timestamp;temperature;humidity
16289;DHT22;26089;43.538;5.250;2022-10-18T00:02:12;17.00;99.90
16289;DHT22;26089;43.538;5.250;2022-10-18T00:04:40;17.00;99.90
16289;DHT22;26089;43.538;5.250;2022-10-18T00:07:07;17.00;99.90
16289;DHT22;26089;43.538;5.250;2022-10-18T00:09:34;16.90;99.90
16289;DHT22;26089;43.538;5.250;2022-10-18T00:12:01;16.90;99.90
16289;DHT22;26089;43.538;5.250;2022-10-18T00:14:29;16.90;99.90
16289;DHT22;26089;43.538;5.250;2022-10-18T00:16:56;16.80;99.90
16289;DHT22;26089;43.538;5.250;2022-10-18T00:19:23;16.90;99.90
16289;DHT22;26089;43.538;5.250;2022-10-18T00:21:50;16.80;99.90
16289;DHT22;26089;43.538;5.250;2022-10-18T00:24:17;16.80;99.90
16289;DHT22;26089;43.538;5.250;2022-10-18T00:26:44;16.80;99.90
16289;DHT22;26089;43.538;5.250;2022-10-18T00:29:13;16.80;99.90
16289;DHT22;26089;43.538;5.250;2022-10-18T00:31:43;16.80;99.90
16289;DHT22;26089;43.538;5.250;2022-10-18T00:34:11;16.80;99.90
16289;DHT22;26089;43.538;5.250;2022-10-18T00:36:38;16.80;99.90
16289;DHT22;26089;43.538;5.250;2022-10-18T00:39:06;16.70;99.90
16289;DHT22;26089;43.538;5.250;2022-10-18T00:41:35;16.70;99.90
16289;DHT22;26089;43.538;5.250;2022-10-18T00:47:12;16.60;99.90
16289;DHT22;26089;43.538;5.250;2022-10-18T00:49:41;16.60;99.90
16289;DHT22;26089;43.538;5.250;2022-10-18T00:52:12;16.60;99.90
16289;DHT22;26089;43.538;5.250;2022-10-18T00:54:41;16.60;99.90
16289;DHT22;26089;43.538;5.250;2022-10-18T00:57:10;16.60;99.90
16289;DHT22;26089;43.538;5.250;2022-10-18T00:59:37;16.60;99.90
16289;DHT22;26089;43.538;5.250;2022-10-18T01:02:05;16.60;99.90
16289;DHT22;26089;43.538;5.250;2022-10-18T01:04:34;16.50;99.90
16289;DHT22;26089;43.538;5.250;2022-10-18T01:07:18;16.50;99.90
16289;DHT22;26089;43.538;5.250;2022-10-18T01:09:55;16.50;99.90
16289;DHT22;26089;43.538;5.250;2022-10-18T01:12:31;16.40;99.90
16289;DHT22;26089;43.538;5.250;2022-10-18T01:15:07;16.40;99.90
16289;DHT22;26089;43.538;5.250;2022-10-18T01:17:42;16.30;99.90
16289;DHT22;26089;43.538;5.250;2022-10-18T01:20:29;16.30;99.90
16289;DHT22;26089;43.538;5.250;2022-10-18T01:23:04;16.30;99.90
16289;DHT22;26089;43.538;5.250;2022-10-18T01:25:40;16.30;99.90
16289;DHT22;26089;43.538;5.250;2022-10-18T01:28:19;16.30;99.90
16289;DHT22;26089;43.538;5.250;2022-10-18T01:30:56;16.30;99.90
16289;DHT22;26089;43.538;5.250;2022-10-18T01:33:30;16.30;99.90
16289;DHT22;26089;43.538;5.250;2022-10-18T01:36:01;16.20;99.90
16289;DHT22;26089;43.538;5.250;2022-10-18T01:38:31;16.20;99.90
16289;DHT22;26089;43.538;5.250;2022-10-18T01:41:01;16.30;99.90
16289;DHT22;26089;43.538;5.250;2022-10-18T01:43:29;16.30;99.90
16289;DHT22;26089;43.538;5.250;2022-10-18T01:46:00;16.30;99.90
16289;DHT22;26089;43.538;5.250;2022-10-18T01:48:28;16.30;99.90
16289;DHT22;26089;43.538;5.250;2022-10-18T01:50:56;16.30;99.90
16289;DHT22;26089;43.538;5.250;2022-10-18T01:53:27;16.20;99.90
16289;DHT22;26089;43.538;5.250;2022-10-18T01:56:15;16.20;99.90
16289;DHT22;26089;43.538;5.250;2022-10-18T01:58:51;16.20;99.90
16289;DHT22;26089;43.538;5.250;2022-10-18T02:01:27;16.20;99.90
16289;DHT22;26089;43.538;5.250;2022-10-18T02:04:01;16.10;99.90
16289;DHT22;26089;43.538;5.250;2022-10-18T02:06:35;16.10;99.90
16289;DHT22;26089;43.538;5.250;2022-10-18T02:09:10;16.10;99.90
16289;DHT22;26089;43.538;5.250;2022-10-18T02:11:38;16.00;99.90
16289;DHT22;26089;43.538;5.250;2022-10-18T02:14:09;16.00;99.90
16289;DHT22;26089;43.538;5.250;2022-10-18T02:16:41;16.00;99.90
16289;DHT22;26089;43.538;5.250;2022-10-18T02:19:12;16.00;99.90
16289;DHT22;26089;43.538;5.250;2022-10-18T02:21:41;16.00;99.90
16289;DHT22;26089;43.538;5.250;2022-10-18T02:24:10;16.10;99.90
16289;DHT22;26089;43.538;5.250;2022-10-18T02:26:38;16.10;99.90
16289;DHT22;26089;43.538;5.250;2022-10-18T02:29:06;16.10;99.90
16289;DHT22;26089;43.538;5.250;2022-10-18T02:31:38;16.10;99.90
16289;DHT22;26089;43.538;5.250;2022-10-18T02:34:15;16.10;99.90
16289;DHT22;26089;43.538;5.250;2022-10-18T02:36:46;16.00;99.90
16289;DHT22;26089;43.538;5.250;2022-10-18T02:39:15;16.00;99.90
16289;DHT22;26089;43.538;5.250;2022-10-18T02:41:43;16.00;99.90
16289;DHT22;26089;43.538;5.250;2022-10-18T02:44:10;16.10;99.90
16289;DHT22;26089;43.538;5.250;2022-10-18T02:46:39;16.10;99.90
16289;DHT22;26089;43.538;5.250;2022-10-18T02:49:06;16.00;99.90
16289;DHT22;26089;43.538;5.250;2022-10-18T02:51:33;16.00;99.90
16289;DHT22;26089;43.538;5.250;2022-10-18T02:54:00;16.00;99.90
16289;DHT22;26089;43.538;5.250;2022-10-18T02:56:27;15.90;99.90
16289;DHT22;26089;43.538;5.250;2022-10-18T02:58:55;15.90;99.90
16289;DHT22;26089;43.538;5.250;2022-10-18T03:01:22;15.90;99.90
16289;DHT22;26089;43.538;5.250;2022-10-18T03:03:50;15.90;99.90
16289;DHT22;26089;43.538;5.250;2022-10-18T03:06:18;15.90;99.90
16289;DHT22;26089;43.538;5.250;2022-10-18T03:08:45;15.90;99.90
16289;DHT22;26089;43.538;5.250;2022-10-18T03:11:12;15.90;99.90
16289;DHT22;26089;43.538;5.250;2022-10-18T03:13:39;15.90;99.90
16289;DHT22;26089;43.538;5.250;2022-10-18T03:16:06;15.90;99.90
16289;DHT22;26089;43.538;5.250;2022-10-18T03:18:33;15.90;99.90
16289;DHT22;26089;43.538;5.250;2022-10-18T03:21:04;15.90;99.90
16289;DHT22;26089;43.538;5.250;2022-10-18T03:23:32;15.90;99.90
16289;DHT22;26089;43.538;5.250;2022-10-18T03:25:59;15.90;99.90
16289;DHT22;26089;43.538;5.250;2022-10-18T03:28:26;15.80;99.90
16289;DHT22;26089;43.538;5.250;2022-10-18T03:30:57;15.70;99.90
16289;DHT22;26089;43.538;5.250;2022-10-18T03:33:25;15.70;99.90
16289;DHT22;26089;43.538;5.250;2022-10-18T03:35:51;15.80;99.90
16289;DHT22;26089;43.538;5.250;2022-10-18T03:38:20;15.70;99.90
16289;DHT22;26089;43.538;5.250;2022-10-18T03:40:47;15.70;99.90
16289;DHT22;26089;43.538;5.250;2022-10-18T03:43:14;15.70;99.90
16289;DHT22;26089;43.538;5.250;2022-10-18T03:45:41;15.70;99.90
16289;DHT22;26089;43.538;5.250;2022-10-18T03:48:08;15.70;99.90
16289;DHT22;26089;43.538;5.250;2022-10-18T03:50:35;15.70;99.90
16289;DHT22;26089;43.538;5.250;2022-10-18T03:53:02;15.60;99.90
16289;DHT22;26089;43.538;5.250;2022-10-18T03:55:31;15.60;99.90
16289;DHT22;26089;43.538;5.250;2022-10-18T03:57:58;15.60;99.90
16289;DHT22;26089;43.538;5.250;2022-10-18T04:00:25;15.50;99.90
16289;DHT22;26089;43.538;5.250;2022-10-18T04:02:52;15.60;99.90
16289;DHT22;26089;43.538;5.250;2022-10-18T04:05:19;15.50;99.90
16289;DHT22;26089;43.538;5.250;2022-10-18T04:07:48;15.50;99.90
16289;DHT22;26089;43.538;5.250;2022-10-18T04:10:15;15.50;99.90
16289;DHT22;26089;43.538;5.250;2022-10-18T04:12:44;15.50;99.90
16289;DHT22;26089;43.538;5.250;2022-10-18T04:15:11;15.50;99.90
16289;DHT22;26089;43.538;5.250;2022-10-18T04:17:38;15.40;99.90
16289;DHT22;26089;43.538;5.250;2022-10-18T04:20:06;15.40;99.90
16289;DHT22;26089;43.538;5.250;2022-10-18T04:22:33;15.40;99.90
16289;DHT22;26089;43.538;5.250;2022-10-18T04:25:00;15.40;99.90
16289;DHT22;26089;43.538;5.250;2022-10-18T04:27:27;15.40;99.90
16289;DHT22;26089;43.538;5.250;2022-10-18T04:29:56;15.40;99.90
16289;DHT22;26089;43.538;5.250;2022-10-18T04:32:23;15.40;99.90
16289;DHT22;26089;43.538;5.250;2022-10-18T04:34:52;15.40;99.90
16289;DHT22;26089;43.538;5.250;2022-10-18T04:37:19;15.40;99.90
16289;DHT22;26089;43.538;5.250;2022-10-18T04:39:46;15.40;99.90
16289;DHT22;26089;43.538;5.250;2022-10-18T04:42:13;15.40;99.90
16289;DHT22;26089;43.538;5.250;2022-10-18T04:44:40;15.30;99.90
16289;DHT22;26089;43.538;5.250;2022-10-18T04:47:09;15.30;99.90
16289;DHT22;26089;43.538;5.250;2022-10-18T04:49:36;15.20;99.90
16289;DHT22;26089;43.538;5.250;2022-10-18T04:52:03;15.20;99.90
16289;DHT22;26089;43.538;5.250;2022-10-18T04:54:30;15.20;99.90
16289;DHT22;26089;43.538;5.250;2022-10-18T04:56:57;15.20;99.90
16289;DHT22;26089;43.538;5.250;2022-10-18T04:59:24;15.20;99.90
16289;DHT22;26089;43.538;5.250;2022-10-18T05:01:51;15.20;99.90
16289;DHT22;26089;43.538;5.250;2022-10-18T05:04:20;15.20;99.90
16289;DHT22;26089;43.538;5.250;2022-10-18T05:06:47;15.20;99.90
16289;DHT22;26089;43.538;5.250;2022-10-18T05:09:14;15.20;99.90
16289;DHT22;26089;43.538;5.250;2022-10-18T05:11:41;15.20;99.90
16289;DHT22;26089;43.538;5.250;2022-10-18T05:14:08;15.20;99.90
16289;DHT22;26089;43.538;5.250;2022-10-18T05:16:35;15.20;99.90
16289;DHT22;26089;43.538;5.250;2022-10-18T05:19:03;15.20;99.90
16289;DHT22;26089;43.538;5.250;2022-10-18T05:21:32;15.20;99.90
16289;DHT22;26089;43.538;5.250;2022-10-18T05:23:59;15.10;99.90
16289;DHT22;26089;43.538;5.250;2022-10-18T05:26:26;15.20;99.90
16289;DHT22;26089;43.538;5.250;2022-10-18T05:28:53;15.20;99.90
16289;DHT22;26089;43.538;5.250;2022-10-18T05:31:20;15.20;99.90
16289;DHT22;26089;43.538;5.250;2022-10-18T05:33:47;15.20;99.90
16289;DHT22;26089;43.538;5.250;2022-10-18T05:36:14;15.10;99.90
16289;DHT22;26089;43.538;5.250;2022-10-18T05:38:43;15.10;99.90
16289;DHT22;26089;43.538;5.250;2022-10-18T05:41:10;15.10;99.90
16289;DHT22;26089;43.538;5.250;2022-10-18T05:43:38;15.00;99.90
16289;DHT22;26089;43.538;5.250;2022-10-18T05:46:05;15.00;99.90
16289;DHT22;26089;43.538;5.250;2022-10-18T05:48:33;15.00;99.90
16289;DHT22;26089;43.538;5.250;2022-10-18T05:51:00;15.00;99.90
16289;DHT22;26089;43.538;5.250;2022-10-18T05:53:28;14.90;99.90
16289;DHT22;26089;43.538;5.250;2022-10-18T05:55:59;14.90;99.90
16289;DHT22;26089;43.538;5.250;2022-10-18T05:58:26;14.90;99.90
16289;DHT22;26089;43.538;5.250;2022-10-18T06:00:53;14.90;99.90
16289;DHT22;26089;43.538;5.250;2022-10-18T06:03:23;14.90;99.90
16289;DHT22;26089;43.538;5.250;2022-10-18T06:05:52;14.90;99.90
16289;DHT22;26089;43.538;5.250;2022-10-18T06:08:19;14.80;99.90
16289;DHT22;26089;43.538;5.250;2022-10-18T06:10:46;14.80;99.90
16289;DHT22;26089;43.538;5.250;2022-10-18T06:13:14;14.80;99.90
16289;DHT22;26089;43.538;5.250;2022-10-18T06:15:41;14.80;99.90
16289;DHT22;26089;43.538;5.250;2022-10-18T06:18:08;14.80;99.90
16289;DHT22;26089;43.538;5.250;2022-10-18T06:20:35;14.80;99.90
16289;DHT22;26089;43.538;5.250;2022-10-18T06:23:02;14.90;99.90
16289;DHT22;26089;43.538;5.250;2022-10-18T06:25:29;14.80;99.90
16289;DHT22;26089;43.538;5.250;2022-10-18T06:27:56;14.90;99.90
16289;DHT22;26089;43.538;5.250;2022-10-18T06:30:25;14.80;99.90
16289;DHT22;26089;43.538;5.250;2022-10-18T06:32:52;15.00;99.90
16289;DHT22;26089;43.538;5.250;2022-10-18T06:35:19;15.10;99.90
16289;DHT22;26089;43.538;5.250;2022-10-18T06:37:46;15.00;99.90
16289;DHT22;26089;43.538;5.250;2022-10-18T06:40:13;15.10;99.90
16289;DHT22;26089;43.538;5.250;2022-10-18T06:42:40;15.20;99.90
16289;DHT22;26089;43.538;5.250;2022-10-18T06:45:08;15.30;99.90
16289;DHT22;26089;43.538;5.250;2022-10-18T06:47:36;15.40;99.90
16289;DHT22;26089;43.538;5.250;2022-10-18T06:50:04;15.40;99.90
16289;DHT22;26089;43.538;5.250;2022-10-18T06:52:31;15.60;99.90
16289;DHT22;26089;43.538;5.250;2022-10-18T06:54:58;15.70;99.90
16289;DHT22;26089;43.538;5.250;2022-10-18T06:57:25;15.90;99.90
16289;DHT22;26089;43.538;5.250;2022-10-18T06:59:52;16.00;99.90
16289;DHT22;26089;43.538;5.250;2022-10-18T07:02:19;16.00;99.90
16289;DHT22;26089;43.538;5.250;2022-10-18T07:04:47;16.10;99.90
16289;DHT22;26089;43.538;5.250;2022-10-18T07:07:14;16.20;99.90
16289;DHT22;26089;43.538;5.250;2022-10-18T07:09:42;16.20;99.90
16289;DHT22;26089;43.538;5.250;2022-10-18T07:12:10;16.30;99.90
16289;DHT22;26089;43.538;5.250;2022-10-18T07:14:40;16.30;99.90
16289;DHT22;26089;43.538;5.250;2022-10-18T07:17:07;16.40;99.90
16289;DHT22;26089;43.538;5.250;2022-10-18T07:19:34;16.50;99.90
16289;DHT22;26089;43.538;5.250;2022-10-18T07:22:02;16.70;99.90
16289;DHT22;26089;43.538;5.250;2022-10-18T07:24:29;16.80;99.90
16289;DHT22;26089;43.538;5.250;2022-10-18T07:26:56;16.90;99.90
16289;DHT22;26089;43.538;5.250;2022-10-18T07:29:23;17.00;99.90
16289;DHT22;26089;43.538;5.250;2022-10-18T07:31:50;17.20;99.90
16289;DHT22;26089;43.538;5.250;2022-10-18T07:34:17;17.40;99.90
16289;DHT22;26089;43.538;5.250;2022-10-18T07:36:44;17.60;99.90
16289;DHT22;26089;43.538;5.250;2022-10-18T07:39:13;18.00;99.90
16289;DHT22;26089;43.538;5.250;2022-10-18T07:41:40;18.30;99.90
16289;DHT22;26089;43.538;5.250;2022-10-18T07:44:07;18.70;99.90
16289;DHT22;26089;43.538;5.250;2022-10-18T07:46:34;19.20;99.90
16289;DHT22;26089;43.538;5.250;2022-10-18T07:49:01;19.80;99.90
16289;DHT22;26089;43.538;5.250;2022-10-18T07:51:28;20.80;99.90
16289;DHT22;26089;43.538;5.250;2022-10-18T07:53:57;21.80;99.90
16289;DHT22;26089;43.538;5.250;2022-10-18T07:56:25;22.70;99.90
16289;DHT22;26089;43.538;5.250;2022-10-18T07:58:54;23.50;99.90
16289;DHT22;26089;43.538;5.250;2022-10-18T08:01:23;24.10;99.90
16289;DHT22;26089;43.538;5.250;2022-10-18T08:03:50;24.60;99.90
16289;DHT22;26089;43.538;5.250;2022-10-18T08:06:19;24.80;99.90
16289;DHT22;26089;43.538;5.250;2022-10-18T08:08:46;25.40;99.90
16289;DHT22;26089;43.538;5.250;2022-10-18T08:11:15;25.90;99.90
16289;DHT22;26089;43.538;5.250;2022-10-18T08:13:44;26.00;99.90
16289;DHT22;26089;43.538;5.250;2022-10-18T08:16:13;26.20;99.90
16289;DHT22;26089;43.538;5.250;2022-10-18T08:18:41;26.70;99.90
16289;DHT22;26089;43.538;5.250;2022-10-18T08:21:09;27.40;99.90
16289;DHT22;26089;43.538;5.250;2022-10-18T08:23:37;27.50;99.90
16289;DHT22;26089;43.538;5.250;2022-10-18T08:26:06;27.70;99.90
16289;DHT22;26089;43.538;5.250;2022-10-18T08:28:34;27.60;99.90
16289;DHT22;26089;43.538;5.250;2022-10-18T08:31:04;27.70;99.90
16289;DHT22;26089;43.538;5.250;2022-10-18T08:33:32;28.10;99.90
16289;DHT22;26089;43.538;5.250;2022-10-18T08:36:01;28.40;99.90
16289;DHT22;26089;43.538;5.250;2022-10-18T08:38:30;28.60;99.90
16289;DHT22;26089;43.538;5.250;2022-10-18T08:40:58;28.50;99.90
16289;DHT22;26089;43.538;5.250;2022-10-18T08:43:32;28.60;99.90
16289;DHT22;26089;43.538;5.250;2022-10-18T08:46:03;28.50;99.90
16289;DHT22;26089;43.538;5.250;2022-10-18T08:48:34;28.00;99.90
16289;DHT22;26089;43.538;5.250;2022-10-18T08:51:04;27.50;99.90
16289;DHT22;26089;43.538;5.250;2022-10-18T08:53:38;26.70;99.90
16289;DHT22;26089;43.538;5.250;2022-10-18T08:56:10;25.90;99.90
16289;DHT22;26089;43.538;5.250;2022-10-18T08:58:41;25.20;99.90
16289;DHT22;26089;43.538;5.250;2022-10-18T09:01:21;24.80;99.90
16289;DHT22;26089;43.538;5.250;2022-10-18T09:04:00;24.30;99.90
16289;DHT22;26089;43.538;5.250;2022-10-18T09:06:33;23.90;99.90
16289;DHT22;26089;43.538;5.250;2022-10-18T09:09:10;23.80;99.90
16289;DHT22;26089;43.538;5.250;2022-10-18T09:11:50;23.70;99.90
16289;DHT22;26089;43.538;5.250;2022-10-18T09:14:54;23.50;99.90
16289;DHT22;26089;43.538;5.250;2022-10-18T09:17:33;23.30;99.90
16289;DHT22;26089;43.538;5.250;2022-10-18T09:20:18;23.20;99.90
16289;DHT22;26089;43.538;5.250;2022-10-18T09:22:52;23.10;99.90
16289;DHT22;26089;43.538;5.250;2022-10-18T09:25:22;23.30;99.90
16289;DHT22;26089;43.538;5.250;2022-10-18T09:27:55;23.40;99.90
16289;DHT22;26089;43.538;5.250;2022-10-18T09:30:32;23.40;99.90
16289;DHT22;26089;43.538;5.250;2022-10-18T09:33:12;23.40;99.90
16289;DHT22;26089;43.538;5.250;2022-10-18T09:35:46;23.60;99.90
16289;DHT22;26089;43.538;5.250;2022-10-18T09:38:18;23.50;99.90
16289;DHT22;26089;43.538;5.250;2022-10-18T09:40:51;23.50;99.90
16289;DHT22;26089;43.538;5.250;2022-10-18T09:43:22;23.40;99.90
16289;DHT22;26089;43.538;5.250;2022-10-18T09:45:50;23.40;99.90
16289;DHT22;26089;43.538;5.250;2022-10-18T09:48:21;23.50;99.90
16289;DHT22;26089;43.538;5.250;2022-10-18T09:50:56;23.90;99.90
16289;DHT22;26089;43.538;5.250;2022-10-18T09:53:29;24.30;99.90
16289;DHT22;26089;43.538;5.250;2022-10-18T09:56:02;24.50;99.90
16289;DHT22;26089;43.538;5.250;2022-10-18T09:58:40;24.70;99.90
16289;DHT22;26089;43.538;5.250;2022-10-18T10:01:08;24.70;99.90
16289;DHT22;26089;43.538;5.250;2022-10-18T10:03:37;25.10;99.90
16289;DHT22;26089;43.538;5.250;2022-10-18T10:06:15;25.50;99.90
16289;DHT22;26089;43.538;5.250;2022-10-18T10:08:46;26.00;99.90
16289;DHT22;26089;43.538;5.250;2022-10-18T10:11:28;26.20;99.90
16289;DHT22;26089;43.538;5.250;2022-10-18T10:14:12;25.90;99.90
16289;DHT22;26089;43.538;5.250;2022-10-18T10:16:51;26.00;99.90
16289;DHT22;26089;43.538;5.250;2022-10-18T10:19:23;26.50;99.90
16289;DHT22;26089;43.538;5.250;2022-10-18T10:21:53;26.60;99.90
16289;DHT22;26089;43.538;5.250;2022-10-18T10:24:24;26.70;99.90
16289;DHT22;26089;43.538;5.250;2022-10-18T10:27:03;27.10;99.90
16289;DHT22;26089;43.538;5.250;2022-10-18T10:29:55;27.10;99.90
16289;DHT22;26089;43.538;5.250;2022-10-18T10:32:25;27.20;99.90
16289;DHT22;26089;43.538;5.250;2022-10-18T10:34:55;27.40;99.90
16289;DHT22;26089;43.538;5.250;2022-10-18T10:37:30;27.40;99.90
16289;DHT22;26089;43.538;5.250;2022-10-18T10:40:18;27.20;99.90
16289;DHT22;26089;43.538;5.250;2022-10-18T10:43:01;27.30;99.90
16289;DHT22;26089;43.538;5.250;2022-10-18T10:45:31;27.20;99.90
16289;DHT22;26089;43.538;5.250;2022-10-18T10:48:07;27.40;99.90
16289;DHT22;26089;43.538;5.250;2022-10-18T10:50:50;27.50;99.90
16289;DHT22;26089;43.538;5.250;2022-10-18T10:53:33;27.50;99.90
16289;DHT22;26089;43.538;5.250;2022-10-18T10:56:02;27.40;99.90
16289;DHT22;26089;43.538;5.250;2022-10-18T10:58:34;27.50;99.90
16289;DHT22;26089;43.538;5.250;2022-10-18T11:01:24;27.90;99.90
16289;DHT22;26089;43.538;5.250;2022-10-18T11:03:53;28.20;99.90
16289;DHT22;26089;43.538;5.250;2022-10-18T11:09:47;28.40;99.90
16289;DHT22;26089;43.538;5.250;2022-10-18T11:15:09;28.20;99.90
16289;DHT22;26089;43.538;5.250;2022-10-18T11:17:41;28.20;99.90
16289;DHT22;26089;43.538;5.250;2022-10-18T11:20:20;28.10;99.90
16289;DHT22;26089;43.538;5.250;2022-10-18T11:22:57;28.10;99.90
16289;DHT22;26089;43.538;5.250;2022-10-18T11:25:33;28.50;99.90
16289;DHT22;26089;43.538;5.250;2022-10-18T11:28:09;28.80;99.90
16289;DHT22;26089;43.538;5.250;2022-10-18T11:30:48;28.80;99.90
16289;DHT22;26089;43.538;5.250;2022-10-18T11:33:21;29.30;99.90
16289;DHT22;26089;43.538;5.250;2022-10-18T11:35:56;29.60;99.90
16289;DHT22;26089;43.538;5.250;2022-10-18T11:38:36;29.70;99.90
16289;DHT22;26089;43.538;5.250;2022-10-18T11:41:29;30.10;99.90
16289;DHT22;26089;43.538;5.250;2022-10-18T11:43:58;30.00;99.90
16289;DHT22;26089;43.538;5.250;2022-10-18T11:46:36;29.80;99.90
16289;DHT22;26089;43.538;5.250;2022-10-18T11:49:31;29.80;99.90
16289;DHT22;26089;43.538;5.250;2022-10-18T11:52:07;30.10;99.90
16289;DHT22;26089;43.538;5.250;2022-10-18T11:55:01;29.90;99.90
16289;DHT22;26089;43.538;5.250;2022-10-18T11:57:42;30.10;99.90
16289;DHT22;26089;43.538;5.250;2022-10-18T12:00:42;30.40;99.90
16289;DHT22;26089;43.538;5.250;2022-10-18T12:03:25;30.40;99.90
16289;DHT22;26089;43.538;5.250;2022-10-18T12:05:55;30.70;99.90
16289;DHT22;26089;43.538;5.250;2022-10-18T12:08:27;30.40;99.90
16289;DHT22;26089;43.538;5.250;2022-10-18T12:10:59;30.60;99.90
16289;DHT22;26089;43.538;5.250;2022-10-18T12:13:35;30.20;99.90
16289;DHT22;26089;43.538;5.250;2022-10-18T12:16:07;29.30;99.90
16289;DHT22;26089;43.538;5.250;2022-10-18T12:18:38;29.50;99.90
16289;DHT22;26089;43.538;5.250;2022-10-18T12:21:11;29.80;99.90
16289;DHT22;26089;43.538;5.250;2022-10-18T12:23:44;29.70;99.90
16289;DHT22;26089;43.538;5.250;2022-10-18T12:26:13;29.70;99.90
16289;DHT22;26089;43.538;5.250;2022-10-18T12:28:48;29.60;99.90
16289;DHT22;26089;43.538;5.250;2022-10-18T12:31:21;29.70;99.90
16289;DHT22;26089;43.538;5.250;2022-10-18T12:33:53;29.80;99.90
16289;DHT22;26089;43.538;5.250;2022-10-18T12:36:42;29.10;99.90
16289;DHT22;26089;43.538;5.250;2022-10-18T12:39:18;28.70;99.90
16289;DHT22;26089;43.538;5.250;2022-10-18T12:41:46;28.70;99.90
16289;DHT22;26089;43.538;5.250;2022-10-18T12:44:21;28.70;99.90
16289;DHT22;26089;43.538;5.250;2022-10-18T12:46:51;28.70;99.90
16289;DHT22;26089;43.538;5.250;2022-10-18T12:49:24;28.10;99.90
16289;DHT22;26089;43.538;5.250;2022-10-18T12:51:53;27.90;99.90
16289;DHT22;26089;43.538;5.250;2022-10-18T12:54:25;28.00;99.90
16289;DHT22;26089;43.538;5.250;2022-10-18T12:56:54;28.30;99.90
16289;DHT22;26089;43.538;5.250;2022-10-18T12:59:49;28.60;99.90
16289;DHT22;26089;43.538;5.250;2022-10-18T13:02:28;28.80;99.90
16289;DHT22;26089;43.538;5.250;2022-10-18T13:04:56;28.80;99.90
16289;DHT22;26089;43.538;5.250;2022-10-18T13:07:35;28.20;99.90
16289;DHT22;26089;43.538;5.250;2022-10-18T13:10:39;27.70;99.90
16289;DHT22;26089;43.538;5.250;2022-10-18T13:13:33;28.40;99.90
16289;DHT22;26089;43.538;5.250;2022-10-18T13:16:12;28.80;99.90
16289;DHT22;26089;43.538;5.250;2022-10-18T13:18:52;28.90;99.90
16289;DHT22;26089;43.538;5.250;2022-10-18T13:21:25;29.30;99.90
16289;DHT22;26089;43.538;5.250;2022-10-18T13:24:13;29.50;99.90
16289;DHT22;26089;43.538;5.250;2022-10-18T13:26:51;29.50;99.90
16289;DHT22;26089;43.538;5.250;2022-10-18T13:32:23;29.10;99.90
16289;DHT22;26089;43.538;5.250;2022-10-18T13:34:53;29.30;99.90
16289;DHT22;26089;43.538;5.250;2022-10-18T13:37:22;28.60;99.90
16289;DHT22;26089;43.538;5.250;2022-10-18T13:39:50;28.60;99.90
16289;DHT22;26089;43.538;5.250;2022-10-18T13:42:30;28.20;99.90
16289;DHT22;26089;43.538;5.250;2022-10-18T13:53:58;28.20;99.90
16289;DHT22;26089;43.538;5.250;2022-10-18T13:56:52;28.10;99.90
16289;DHT22;26089;43.538;5.250;2022-10-18T13:59:48;28.00;99.90
16289;DHT22;26089;43.538;5.250;2022-10-18T14:02:43;28.00;99.90
16289;DHT22;26089;43.538;5.250;2022-10-18T14:05:23;27.70;99.90
16289;DHT22;26089;43.538;5.250;2022-10-18T14:08:01;27.30;99.90
16289;DHT22;26089;43.538;5.250;2022-10-18T14:10:39;27.10;99.90
16289;DHT22;26089;43.538;5.250;2022-10-18T14:13:16;27.10;99.90
16289;DHT22;26089;43.538;5.250;2022-10-18T14:15:48;27.10;99.90
16289;DHT22;26089;43.538;5.250;2022-10-18T14:18:18;27.20;99.90
16289;DHT22;26089;43.538;5.250;2022-10-18T14:20:49;27.20;99.90
16289;DHT22;26089;43.538;5.250;2022-10-18T14:23:20;27.30;99.90
16289;DHT22;26089;43.538;5.250;2022-10-18T14:25:48;27.20;99.90
16289;DHT22;26089;43.538;5.250;2022-10-18T14:28:16;27.00;99.90
16289;DHT22;26089;43.538;5.250;2022-10-18T14:30:52;27.00;99.90
16289;DHT22;26089;43.538;5.250;2022-10-18T14:33:29;26.90;99.90
16289;DHT22;26089;43.538;5.250;2022-10-18T14:35:59;26.80;99.90
16289;DHT22;26089;43.538;5.250;2022-10-18T14:38:29;26.60;99.90
16289;DHT22;26089;43.538;5.250;2022-10-18T14:41:13;26.40;99.90
16289;DHT22;26089;43.538;5.250;2022-10-18T14:43:41;26.10;99.90
16289;DHT22;26089;43.538;5.250;2022-10-18T14:46:15;26.10;99.90
16289;DHT22;26089;43.538;5.250;2022-10-18T14:48:51;26.20;99.90
16289;DHT22;26089;43.538;5.250;2022-10-18T14:51:20;26.20;99.90
16289;DHT22;26089;43.538;5.250;2022-10-18T14:53:49;26.20;99.90
16289;DHT22;26089;43.538;5.250;2022-10-18T14:56:25;26.00;99.90
16289;DHT22;26089;43.538;5.250;2022-10-18T14:58:53;25.70;99.90
16289;DHT22;26089;43.538;5.250;2022-10-18T15:01:23;25.80;99.90
16289;DHT22;26089;43.538;5.250;2022-10-18T15:03:55;25.80;99.90
16289;DHT22;26089;43.538;5.250;2022-10-18T15:06:23;25.70;99.90
16289;DHT22;26089;43.538;5.250;2022-10-18T15:08:54;25.70;99.90
16289;DHT22;26089;43.538;5.250;2022-10-18T15:11:22;25.70;99.90
16289;DHT22;26089;43.538;5.250;2022-10-18T15:13:53;25.60;99.90
16289;DHT22;26089;43.538;5.250;2022-10-18T15:16:23;25.40;99.90
16289;DHT22;26089;43.538;5.250;2022-10-18T15:19:03;25.50;99.90
16289;DHT22;26089;43.538;5.250;2022-10-18T15:21:31;25.50;99.90
16289;DHT22;26089;43.538;5.250;2022-10-18T15:24:25;25.50;99.90
16289;DHT22;26089;43.538;5.250;2022-10-18T15:26:55;25.50;99.90
16289;DHT22;26089;43.538;5.250;2022-10-18T15:29:24;25.40;99.90
16289;DHT22;26089;43.538;5.250;2022-10-18T15:31:53;25.30;99.90
16289;DHT22;26089;43.538;5.250;2022-10-18T15:34:23;25.30;99.90
16289;DHT22;26089;43.538;5.250;2022-10-18T15:36:54;25.10;99.90
16289;DHT22;26089;43.538;5.250;2022-10-18T15:39:25;24.90;99.90
16289;DHT22;26089;43.538;5.250;2022-10-18T15:41:54;24.80;99.90
16289;DHT22;26089;43.538;5.250;2022-10-18T15:44:24;24.50;99.90
16289;DHT22;26089;43.538;5.250;2022-10-18T15:46:53;24.50;99.90
16289;DHT22;26089;43.538;5.250;2022-10-18T15:49:54;24.50;99.90
16289;DHT22;26089;43.538;5.250;2022-10-18T15:52:35;24.60;99.90
16289;DHT22;26089;43.538;5.250;2022-10-18T15:55:45;24.50;99.90
16289;DHT22;26089;43.538;5.250;2022-10-18T15:58:20;24.40;99.90
16289;DHT22;26089;43.538;5.250;2022-10-18T16:00:48;24.20;99.90
16289;DHT22;26089;43.538;5.250;2022-10-18T16:03:17;24.30;99.90
16289;DHT22;26089;43.538;5.250;2022-10-18T16:05:44;24.20;99.90
16289;DHT22;26089;43.538;5.250;2022-10-18T16:08:19;24.00;99.90
16289;DHT22;26089;43.538;5.250;2022-10-18T16:10:48;23.80;99.90
16289;DHT22;26089;43.538;5.250;2022-10-18T16:13:16;23.60;99.90
16289;DHT22;26089;43.538;5.250;2022-10-18T16:15:43;23.50;99.90
16289;DHT22;26089;43.538;5.250;2022-10-18T16:18:14;23.40;99.90
16289;DHT22;26089;43.538;5.250;2022-10-18T16:20:41;23.30;99.90